Time;durP1;ratioP1;P1;durP2;ratioP2;P2;SDS_P1;SDS_P2;PMS_P1;PMS_P2;Temp;Humidity;BMP_temperature;BMP_pressure;BME280_temperature;BME280_humidity;BME280_pressure;Samples;Min_cycle;Max_cycle;Signal;HPM_P1;HPM_P2
2023/10/17 00:02:26;;;;;;;;;;;17.40;53.60;;;;;;217830;1289;22733;-62
2023/10/17 00:07:29;;;;;;;;;;;17.40;53.50;;;;;;218140;1295;22674;-63
2023/10/17 00:12:40;;;;;;;;;;;17.40;53.60;;;;;;218209;1295;22994;-64
2023/10/17 00:17:42;;;;;;;;;;;17.40;53.60;;;;;;218250;1295;22546;-62
2023/10/17 00:22:45;;;;;;;;;;;17.40;53.50;;;;;;218098;1295;22524;-62
2023/10/17 00:27:47;;;;;;;;;;;17.40;53.50;;;;;;217870;1295;22528;-62
2023/10/17 00:32:50;;;;;;;;;;;17.40;53.50;;;;;;218198;1292;23935;-63
2023/10/17 00:37:57;;;;;;;;;;;17.30;53.50;;;;;;218126;1282;24202;-62
2023/10/17 00:43:04;;;;;;;;;;;17.30;53.50;;;;;;218385;1295;24482;-62
2023/10/17 00:48:08;;;;;;;;;;;17.40;53.40;;;;;;217947;1295;22598;-62
2023/10/17 00:53:11;;;;;;;;;;;17.30;53.50;;;;;;217786;1291;22838;-62
2023/10/17 00:58:13;;;;;;;;;;;17.30;53.40;;;;;;218236;1289;22539;-63
2023/10/17 01:03:16;;;;;;;;;;;17.30;53.40;;;;;;218001;1295;23904;-63
2023/10/17 01:08:20;;;;;;;;;;;17.30;54.00;;;;;;217994;1292;23178;-61
2023/10/17 01:13:26;;;;;;;;;;;17.20;53.40;;;;;;218150;1295;22534;-61
2023/10/17 01:18:31;;;;;;;;;;;17.20;53.30;;;;;;218291;1295;22537;-60
2023/10/17 01:23:34;;;;;;;;;;;17.20;53.30;;;;;;218206;1295;22645;-61
2023/10/17 01:28:36;;;;;;;;;;;17.20;53.60;;;;;;217858;1291;22652;-61
2023/10/17 01:33:39;;;;;;;;;;;17.20;53.30;;;;;;217714;1295;22553;-62
2023/10/17 01:38:42;;;;;;;;;;;17.20;53.30;;;;;;218208;1295;22623;-62
2023/10/17 01:43:48;;;;;;;;;;;17.20;53.30;;;;;;218174;1295;22707;-61
2023/10/17 01:48:54;;;;;;;;;;;17.20;53.30;;;;;;218279;1292;24218;-60
2023/10/17 01:53:57;;;;;;;;;;;17.10;53.20;;;;;;218108;1292;22775;-61
2023/10/17 01:59:05;;;;;;;;;;;17.10;53.20;;;;;;218213;1289;24405;-61
2023/10/17 02:04:14;;;;;;;;;;;17.10;53.20;;;;;;217836;1295;22492;-61
2023/10/17 02:14:26;;;;;;;;;;;17.10;53.20;;;;;;218092;1295;22530;-63
2023/10/17 02:19:32;;;;;;;;;;;17.10;53.10;;;;;;217809;1292;24004;-62
2023/10/17 02:24:35;;;;;;;;;;;17.10;53.10;;;;;;218221;1289;22678;-63
2023/10/17 02:29:46;;;;;;;;;;;17.00;53.10;;;;;;218166;1292;22546;-63
2023/10/17 02:34:48;;;;;;;;;;;17.00;53.10;;;;;;217933;1295;22554;-63
2023/10/17 02:39:51;;;;;;;;;;;17.00;53.00;;;;;;218096;1295;23755;-61
2023/10/17 02:44:55;;;;;;;;;;;17.00;53.00;;;;;;218141;1295;22604;-63
2023/10/17 02:50:00;;;;;;;;;;;17.00;53.10;;;;;;218147;1295;22540;-63
2023/10/17 02:55:06;;;;;;;;;;;17.00;53.00;;;;;;218051;1292;22538;-63
2023/10/17 03:00:21;;;;;;;;;;;16.90;53.30;;;;;;218579;1292;25363;-62
2023/10/17 03:05:25;;;;;;;;;;;16.90;53.00;;;;;;217811;1289;253503;-65
2023/10/17 03:10:39;;;;;;;;;;;16.90;52.90;;;;;;218420;1287;24584;-63
2023/10/17 03:15:46;;;;;;;;;;;16.90;53.00;;;;;;218409;1295;22534;-62
2023/10/17 03:20:52;;;;;;;;;;;16.90;53.20;;;;;;218135;1295;22534;-63
2023/10/17 03:26:01;;;;;;;;;;;16.90;52.80;;;;;;218261;1292;24564;-62
2023/10/17 03:31:11;;;;;;;;;;;16.90;53.10;;;;;;218318;1295;25291;-63
2023/10/17 03:41:37;;;;;;;;;;;16.80;52.80;;;;;;218275;1292;23917;-61
2023/10/17 03:46:39;;;;;;;;;;;16.80;52.80;;;;;;218221;1295;23111;-62
2023/10/17 03:51:50;;;;;;;;;;;16.80;53.10;;;;;;218317;1293;22768;-63
2023/10/17 03:57:02;;;;;;;;;;;16.90;52.70;;;;;;217967;1289;22544;-62
2023/10/17 04:02:06;;;;;;;;;;;16.80;52.80;;;;;;218468;1292;24431;-62
2023/10/17 04:07:09;;;;;;;;;;;16.80;52.80;;;;;;218020;1295;23914;-63
2023/10/17 04:12:20;;;;;;;;;;;16.80;52.90;;;;;;218124;1295;24269;-63
2023/10/17 04:17:27;;;;;;;;;;;16.80;52.80;;;;;;218075;1295;22687;-62
2023/10/17 04:22:30;;;;;;;;;;;16.80;53.30;;;;;;218194;1295;22695;-63
2023/10/17 04:27:32;;;;;;;;;;;16.80;52.60;;;;;;218192;1295;22563;-62
2023/10/17 04:32:38;;;;;;;;;;;16.70;52.70;;;;;;218004;1292;22562;-62
2023/10/17 04:37:44;;;;;;;;;;;16.70;52.70;;;;;;218079;1292;23898;-61
2023/10/17 04:42:48;;;;;;;;;;;16.70;52.70;;;;;;218024;1292;22851;-61
2023/10/17 04:48:10;;;;;;;;;;;16.70;52.70;;;;;;217935;1295;24282;-60
2023/10/17 04:53:28;;;;;;;;;;;16.70;52.60;;;;;;217901;1295;22523;-60
2023/10/17 04:58:34;;;;;;;;;;;16.70;52.70;;;;;;218237;1289;22547;-61
2023/10/17 05:03:46;;;;;;;;;;;16.70;52.70;;;;;;218124;1295;22559;-61
2023/10/17 05:09:25;;;;;;;;;;;16.70;52.70;;;;;;217885;1295;22654;-61
2023/10/17 06:18:49;;;;;;;;;;;16.50;52.50;;;;;;218044;1295;23897;-63
2023/10/17 06:34:20;;;;;;;;;;;16.50;52.60;;;;;;218105;1295;23599;-63
2023/10/17 06:39:24;;;;;;;;;;;16.50;52.50;;;;;;218299;1295;23949;-62
2023/10/17 06:44:30;;;;;;;;;;;16.50;52.50;;;;;;218243;1295;22546;-62
2023/10/17 06:54:42;;;;;;;;;;;16.50;52.60;;;;;;217917;1295;22543;-62
2023/10/17 06:59:46;;;;;;;;;;;16.50;52.60;;;;;;218160;1295;24219;-62
2023/10/17 07:04:51;;;;;;;;;;;16.50;52.50;;;;;;218063;1295;24268;-62
2023/10/17 07:10:16;;;;;;;;;;;16.50;52.50;;;;;;217953;1295;22565;-62
2023/10/17 07:15:20;;;;;;;;;;;16.50;52.30;;;;;;218076;1295;22543;-62
2023/10/17 07:25:49;;;;;;;;;;;16.50;52.70;;;;;;218286;1292;22858;-62
2023/10/17 07:30:57;;;;;;;;;;;16.50;52.40;;;;;;218323;1292;22655;-63
2023/10/17 07:36:00;;;;;;;;;;;16.50;52.50;;;;;;217848;1280;25341;-60
2023/10/17 07:41:32;;;;;;;;;;;16.50;52.40;;;;;;218353;1295;22662;-62
2023/10/17 07:46:38;;;;;;;;;;;16.50;52.40;;;;;;218324;1295;23904;-62
2023/10/17 07:51:42;;;;;;;;;;;16.50;52.50;;;;;;217816;1295;22654;-61
2023/10/17 07:56:50;;;;;;;;;;;16.60;52.40;;;;;;218059;1290;22539;-62
2023/10/17 08:01:58;;;;;;;;;;;16.60;52.50;;;;;;218356;1279;22534;-62
2023/10/17 08:07:03;;;;;;;;;;;16.60;52.50;;;;;;218330;1289;22547;-61
2023/10/17 08:12:08;;;;;;;;;;;16.60;52.40;;;;;;218263;1289;22530;-61
2023/10/17 08:17:11;;;;;;;;;;;16.60;52.50;;;;;;218023;1295;22524;-62
2023/10/17 08:22:17;;;;;;;;;;;16.60;52.50;;;;;;218554;1289;24399;-62
2023/10/17 08:37:30;;;;;;;;;;;16.70;52.30;;;;;;217970;1295;22617;-61
2023/10/17 08:42:38;;;;;;;;;;;16.70;52.40;;;;;;218290;1292;24289;-63
2023/10/17 08:47:42;;;;;;;;;;;16.70;52.30;;;;;;217794;1295;24060;-62
2023/10/17 08:52:45;;;;;;;;;;;16.80;52.30;;;;;;218565;1295;22527;-62
2023/10/17 08:57:47;;;;;;;;;;;16.80;52.30;;;;;;218080;1295;22526;-61
2023/10/17 09:03:00;;;;;;;;;;;16.80;52.60;;;;;;218104;1289;22718;-60
2023/10/17 09:08:11;;;;;;;;;;;16.80;52.30;;;;;;218125;1286;25108;-64
2023/10/17 09:18:40;;;;;;;;;;;17.00;52.00;;;;;;218235;1292;25433;-62
2023/10/17 09:23:43;;;;;;;;;;;17.00;52.10;;;;;;218174;1289;23954;-61
2023/10/17 09:28:47;;;;;;;;;;;16.90;52.20;;;;;;218065;1295;22562;-60
2023/10/17 09:33:52;;;;;;;;;;;17.00;52.50;;;;;;218056;1286;22541;-62
2023/10/17 09:38:57;;;;;;;;;;;17.00;52.30;;;;;;218183;1293;22537;-63
2023/10/17 09:44:00;;;;;;;;;;;17.00;52.30;;;;;;218378;1292;22678;-62
2023/10/17 09:49:05;;;;;;;;;;;17.00;52.30;;;;;;218079;1282;24228;-62
2023/10/17 09:54:09;;;;;;;;;;;17.00;52.30;;;;;;218107;1292;24347;-62
2023/10/17 09:59:14;;;;;;;;;;;17.10;52.20;;;;;;218395;1280;22556;-61
2023/10/17 10:04:20;;;;;;;;;;;17.10;52.50;;;;;;218121;1295;22540;-62
2023/10/17 10:09:29;;;;;;;;;;;17.10;52.20;;;;;;218421;1280;23363;-63
2023/10/17 10:14:36;;;;;;;;;;;17.20;52.30;;;;;;218292;1289;22564;-62
2023/10/17 10:19:42;;;;;;;;;;;17.20;52.20;;;;;;218577;1295;22659;-62
2023/10/17 10:24:46;;;;;;;;;;;17.30;52.30;;;;;;217892;1292;24257;-62
2023/10/17 10:29:52;;;;;;;;;;;17.30;52.40;;;;;;218048;1295;24460;-62
2023/10/17 10:34:55;;;;;;;;;;;17.30;52.50;;;;;;218200;1292;24259;-62
2023/10/17 10:40:12;;;;;;;;;;;17.30;52.30;;;;;;218189;1292;23180;-62
2023/10/17 10:45:28;;;;;;;;;;;17.30;52.30;;;;;;218335;1285;22926;-62
2023/10/17 10:50:33;;;;;;;;;;;17.40;52.50;;;;;;218290;1292;22534;-62
2023/10/17 10:55:36;;;;;;;;;;;17.40;52.30;;;;;;218265;1279;23904;-61
2023/10/17 11:00:38;;;;;;;;;;;17.40;52.40;;;;;;218307;1291;25602;-62
2023/10/17 11:05:52;;;;;;;;;;;17.50;52.30;;;;;;218046;1292;22537;-61
2023/10/17 11:10:58;;;;;;;;;;;17.50;52.30;;;;;;218145;1290;26019;-63
2023/10/17 11:16:01;;;;;;;;;;;17.60;52.40;;;;;;218152;1295;22533;-62
2023/10/17 11:21:05;;;;;;;;;;;17.60;52.20;;;;;;218287;1292;22662;-64
2023/10/17 11:26:17;;;;;;;;;;;17.60;52.30;;;;;;218262;1292;24221;-61
2023/10/17 11:31:31;;;;;;;;;;;17.70;52.10;;;;;;218418;1279;24250;-62
2023/10/17 11:36:48;;;;;;;;;;;17.70;52.20;;;;;;218288;1295;22537;-62
2023/10/17 11:41:54;;;;;;;;;;;17.60;52.50;;;;;;217989;1289;24227;-62
2023/10/17 11:47:05;;;;;;;;;;;17.60;52.30;;;;;;218214;1295;22544;-63
2023/10/17 11:52:10;;;;;;;;;;;17.60;52.40;;;;;;218204;1285;22527;-62
2023/10/17 11:57:14;;;;;;;;;;;17.60;52.30;;;;;;218061;1280;23871;-62
2023/10/17 12:02:18;;;;;;;;;;;17.50;52.30;;;;;;218546;1289;23370;-63
2023/10/17 12:07:21;;;;;;;;;;;17.50;52.40;;;;;;218271;1292;22580;-62
2023/10/17 12:12:26;;;;;;;;;;;17.50;52.40;;;;;;218008;1289;24423;-62
2023/10/17 12:17:29;;;;;;;;;;;17.50;52.50;;;;;;218154;1289;25182;-61
2023/10/17 12:22:31;;;;;;;;;;;17.50;52.60;;;;;;217868;1295;22526;-62
2023/10/17 12:27:40;;;;;;;;;;;17.40;52.70;;;;;;217866;1289;22639;-62
2023/10/17 12:32:43;;;;;;;;;;;17.50;52.60;;;;;;218683;1292;23651;-64
2023/10/17 12:37:46;;;;;;;;;;;17.40;52.50;;;;;;217859;1285;24320;-61
2023/10/17 12:42:49;;;;;;;;;;;17.40;52.70;;;;;;218569;1279;22545;-64
2023/10/17 12:47:54;;;;;;;;;;;17.40;52.50;;;;;;217955;1292;23947;-63
2023/10/17 12:52:57;;;;;;;;;;;17.50;52.40;;;;;;218420;1292;22608;-62
2023/10/17 12:58:00;;;;;;;;;;;17.50;52.40;;;;;;217839;1291;24469;-62
2023/10/17 13:03:03;;;;;;;;;;;17.50;52.40;;;;;;218113;1292;24227;-62
2023/10/17 13:08:07;;;;;;;;;;;17.50;52.40;;;;;;218317;1288;22537;-63
2023/10/17 13:13:11;;;;;;;;;;;17.50;52.90;;;;;;218674;1292;22757;-62
2023/10/17 13:18:14;;;;;;;;;;;17.50;52.50;;;;;;217710;1289;22668;-62
2023/10/17 13:23:18;;;;;;;;;;;17.50;52.50;;;;;;218540;1295;22820;-62
2023/10/17 13:28:20;;;;;;;;;;;17.50;52.50;;;;;;218185;1294;22586;-62
2023/10/17 13:33:23;;;;;;;;;;;17.50;52.60;;;;;;217818;1295;22655;-62
2023/10/17 13:38:26;;;;;;;;;;;17.40;52.60;;;;;;218202;1279;22781;-62
2023/10/17 13:43:28;;;;;;;;;;;17.40;52.40;;;;;;218352;1295;23926;-62
2023/10/17 13:48:31;;;;;;;;;;;17.50;52.50;;;;;;217919;1295;22570;-62
2023/10/17 13:53:36;;;;;;;;;;;17.50;52.50;;;;;;218019;1295;22519;-62
2023/10/17 13:58:41;;;;;;;;;;;17.40;52.50;;;;;;218025;1279;22747;-62
2023/10/17 14:03:44;;;;;;;;;;;17.50;52.60;;;;;;218525;1295;22541;-64
2023/10/17 14:08:47;;;;;;;;;;;17.50;53.00;;;;;;217992;1294;22538;-63
2023/10/17 14:13:50;;;;;;;;;;;17.50;52.40;;;;;;218345;1292;22615;-62
2023/10/17 14:19:04;;;;;;;;;;;17.50;52.50;;;;;;218127;1289;22558;-62
2023/10/17 14:24:10;;;;;;;;;;;17.50;52.50;;;;;;218040;1295;22671;-62
2023/10/17 14:29:12;;;;;;;;;;;17.50;52.60;;;;;;217995;1295;23941;-63
2023/10/17 14:34:15;;;;;;;;;;;17.50;52.50;;;;;;218324;1292;22530;-61
2023/10/17 14:39:20;;;;;;;;;;;17.50;52.50;;;;;;217992;1295;23939;-62
2023/10/17 14:44:24;;;;;;;;;;;17.50;52.60;;;;;;218529;1292;22531;-62
2023/10/17 14:49:27;;;;;;;;;;;17.50;52.60;;;;;;218170;1292;24120;-62
2023/10/17 14:54:34;;;;;;;;;;;17.50;52.60;;;;;;217961;1292;22549;-63
2023/10/17 14:59:40;;;;;;;;;;;17.50;52.60;;;;;;218127;1295;22562;-62
2023/10/17 15:04:44;;;;;;;;;;;17.40;52.60;;;;;;217951;1292;241815;-62
2023/10/17 15:09:47;;;;;;;;;;;17.50;52.60;;;;;;218424;1295;22547;-62
2023/10/17 15:14:52;;;;;;;;;;;17.50;53.00;;;;;;218439;1292;22545;-64
2023/10/17 15:19:55;;;;;;;;;;;17.50;52.70;;;;;;218209;1295;22527;-62
2023/10/17 15:24:58;;;;;;;;;;;17.50;52.80;;;;;;217912;1292;23869;-63
2023/10/17 15:30:01;;;;;;;;;;;17.40;52.80;;;;;;218344;1295;24228;-63
2023/10/17 15:35:08;;;;;;;;;;;17.40;52.90;;;;;;217935;1292;22612;-63
2023/10/17 15:40:16;;;;;;;;;;;17.40;52.90;;;;;;217846;1292;22596;-63
2023/10/17 15:45:19;;;;;;;;;;;17.40;52.90;;;;;;218373;1295;24234;-62
2023/10/17 15:50:25;;;;;;;;;;;17.30;52.90;;;;;;218278;1282;23117;-63
2023/10/17 15:55:28;;;;;;;;;;;17.30;53.10;;;;;;218585;1292;25338;-62
2023/10/17 16:00:30;;;;;;;;;;;17.30;53.10;;;;;;218257;1282;24256;-63
2023/10/17 16:05:34;;;;;;;;;;;17.30;53.00;;;;;;218013;1282;25337;-63
2023/10/17 16:10:38;;;;;;;;;;;17.30;53.00;;;;;;217931;1295;22627;-62
2023/10/17 16:15:41;;;;;;;;;;;17.40;53.00;;;;;;218149;1295;22662;-63
2023/10/17 16:20:45;;;;;;;;;;;17.30;53.40;;;;;;218722;1289;22674;-64
2023/10/17 16:25:49;;;;;;;;;;;17.30;53.10;;;;;;218060;1295;25337;-61
2023/10/17 16:30:53;;;;;;;;;;;17.30;53.00;;;;;;218076;1295;22532;-62
2023/10/17 16:36:00;;;;;;;;;;;17.20;53.20;;;;;;218352;1292;22840;-61
2023/10/17 16:41:03;;;;;;;;;;;17.30;53.20;;;;;;218398;1282;25447;-61
2023/10/17 16:46:06;;;;;;;;;;;17.20;53.20;;;;;;218360;1292;24281;-60
2023/10/17 16:51:08;;;;;;;;;;;17.20;53.30;;;;;;218298;1295;24320;-62
2023/10/17 16:56:12;;;;;;;;;;;17.20;53.40;;;;;;217948;1294;22520;-61
2023/10/17 17:01:15;;;;;;;;;;;17.20;53.30;;;;;;218196;1279;23188;-62
2023/10/17 17:06:19;;;;;;;;;;;17.20;53.50;;;;;;218083;1288;22848;-62
2023/10/17 17:11:25;;;;;;;;;;;17.20;53.50;;;;;;218630;1295;26519;-62
2023/10/17 17:16:28;;;;;;;;;;;17.10;53.50;;;;;;218023;1295;24431;-60
2023/10/17 17:21:35;;;;;;;;;;;17.10;53.50;;;;;;218399;1292;24321;-62
2023/10/17 17:26:40;;;;;;;;;;;17.10;53.50;;;;;;218269;1295;24355;-61
2023/10/17 17:31:46;;;;;;;;;;;17.10;53.60;;;;;;218231;1292;25338;-62
2023/10/17 17:36:51;;;;;;;;;;;17.00;53.70;;;;;;218391;1285;22652;-62
2023/10/17 17:41:54;;;;;;;;;;;17.00;53.80;;;;;;218187;1280;25455;-62
2023/10/17 17:46:59;;;;;;;;;;;17.00;53.80;;;;;;217921;1295;25287;-61
2023/10/17 17:52:08;;;;;;;;;;;17.00;53.80;;;;;;218288;1295;25552;-62
2023/10/17 17:57:14;;;;;;;;;;;17.00;53.90;;;;;;218270;1287;23994;-62
2023/10/17 18:02:20;;;;;;;;;;;17.00;53.80;;;;;;218216;1287;22662;-61
2023/10/17 18:07:30;;;;;;;;;;;17.00;53.30;;;;;;218291;1289;22652;-64
2023/10/17 18:12:36;;;;;;;;;;;17.00;54.00;;;;;;217733;1295;22549;-62
2023/10/17 18:17:44;;;;;;;;;;;17.00;54.20;;;;;;217889;1293;25373;-62
2023/10/17 18:22:48;;;;;;;;;;;17.00;53.90;;;;;;217800;1295;22540;-58
2023/10/17 18:27:52;;;;;;;;;;;16.90;54.30;;;;;;217798;1297;22610;-62
2023/10/17 18:32:59;;;;;;;;;;;17.00;54.40;;;;;;217805;1295;23940;-62
2023/10/17 18:38:03;;;;;;;;;;;16.90;53.90;;;;;;217703;1289;22543;-64
2023/10/17 18:43:07;;;;;;;;;;;16.90;53.90;;;;;;217721;1295;22839;-61
2023/10/17 18:48:12;;;;;;;;;;;16.90;54.30;;;;;;217360;1298;22993;-61
2023/10/17 18:53:16;;;;;;;;;;;16.90;54.30;;;;;;217599;1295;22569;-62
2023/10/17 18:58:19;;;;;;;;;;;16.90;54.10;;;;;;217443;1292;22621;-61
2023/10/17 19:03:22;;;;;;;;;;;16.90;54.10;;;;;;217860;1295;22538;-61
2023/10/17 19:08:29;;;;;;;;;;;16.90;54.00;;;;;;218090;1292;24349;-62
2023/10/17 19:13:32;;;;;;;;;;;16.90;54.00;;;;;;218123;1295;23840;-62
2023/10/17 19:18:35;;;;;;;;;;;16.90;54.10;;;;;;218288;1292;22543;-62
2023/10/17 19:23:38;;;;;;;;;;;16.90;54.00;;;;;;218230;1295;22626;-60
2023/10/17 19:28:42;;;;;;;;;;;16.90;54.10;;;;;;218280;1295;24256;-61
2023/10/17 19:33:45;;;;;;;;;;;16.90;54.10;;;;;;218323;1295;22568;-60
2023/10/17 19:38:48;;;;;;;;;;;16.90;54.10;;;;;;218411;1295;22597;-62
2023/10/17 19:43:50;;;;;;;;;;;16.80;54.00;;;;;;218408;1292;22540;-62
2023/10/17 19:48:53;;;;;;;;;;;16.80;54.10;;;;;;217954;1292;24088;-61
2023/10/17 19:53:56;;;;;;;;;;;16.90;54.10;;;;;;218087;1295;24383;-62
2023/10/17 19:58:58;;;;;;;;;;;16.90;54.10;;;;;;218202;1279;22831;-62
2023/10/17 20:04:01;;;;;;;;;;;16.80;54.10;;;;;;218217;1291;22576;-61
2023/10/17 20:09:07;;;;;;;;;;;16.80;54.60;;;;;;217885;1287;24238;-61
2023/10/17 20:14:09;;;;;;;;;;;16.80;54.10;;;;;;218265;1295;22536;-62
2023/10/17 20:19:13;;;;;;;;;;;16.80;54.10;;;;;;217784;1279;22569;-61
2023/10/17 20:24:16;;;;;;;;;;;16.80;54.20;;;;;;218461;1292;22824;-61
2023/10/17 20:29:20;;;;;;;;;;;16.80;54.20;;;;;;217934;1292;22547;-62
2023/10/17 20:34:22;;;;;;;;;;;16.80;54.10;;;;;;218142;1295;22665;-61
2023/10/17 20:39:29;;;;;;;;;;;16.80;54.20;;;;;;218366;1295;23907;-61
2023/10/17 20:44:34;;;;;;;;;;;16.80;54.20;;;;;;218202;1295;22928;-61
2023/10/17 20:49:38;;;;;;;;;;;16.80;54.20;;;;;;218289;1290;22524;-63
2023/10/17 20:54:41;;;;;;;;;;;16.80;54.20;;;;;;217944;1295;24250;-62
2023/10/17 20:59:45;;;;;;;;;;;16.80;54.80;;;;;;217831;1292;22751;-64
2023/10/17 21:04:47;;;;;;;;;;;16.80;54.20;;;;;;218404;1292;22523;-61
2023/10/17 21:09:50;;;;;;;;;;;16.80;54.50;;;;;;217946;1287;22530;-63
2023/10/17 21:14:53;;;;;;;;;;;16.70;54.20;;;;;;218055;1295;23937;-61
2023/10/17 21:19:56;;;;;;;;;;;16.70;54.30;;;;;;218614;1287;22511;-61
2023/10/17 21:24:58;;;;;;;;;;;16.70;54.20;;;;;;218185;1292;22769;-61
2023/10/17 21:30:02;;;;;;;;;;;16.70;54.20;;;;;;218508;1291;22651;-60
2023/10/17 21:35:07;;;;;;;;;;;16.70;54.20;;;;;;218121;1289;22527;-60
2023/10/17 21:40:12;;;;;;;;;;;16.70;54.20;;;;;;218542;1295;22524;-62
2023/10/17 21:45:15;;;;;;;;;;;16.70;54.20;;;;;;218110;1295;22696;-62
2023/10/17 21:50:17;;;;;;;;;;;16.70;54.20;;;;;;217843;1295;22531;-61
2023/10/17 21:55:20;;;;;;;;;;;16.70;54.20;;;;;;218329;1292;22534;-61
2023/10/17 22:00:47;;;;;;;;;;;16.70;53.90;;;;;;218082;1280;22523;-60
2023/10/17 22:05:45;;;;;;;;;;;16.70;54.20;;;;;;218452;1295;22543;-60
2023/10/17 22:10:49;;;;;;;;;;;16.70;54.10;;;;;;218265;1295;24094;-61
2023/10/17 22:15:52;;;;;;;;;;;16.70;54.00;;;;;;218506;1294;22751;-61
2023/10/17 22:20:55;;;;;;;;;;;16.70;54.10;;;;;;217922;1290;22572;-62
2023/10/17 22:25:57;;;;;;;;;;;16.70;54.10;;;;;;218127;1295;24507;-61
2023/10/17 22:31:01;;;;;;;;;;;16.70;54.10;;;;;;218276;1295;22528;-62
2023/10/17 22:36:05;;;;;;;;;;;16.70;54.20;;;;;;218050;1292;22551;-62
2023/10/17 22:41:08;;;;;;;;;;;16.70;54.40;;;;;;218705;1292;22526;-61
2023/10/17 22:46:10;;;;;;;;;;;16.70;54.00;;;;;;217887;1295;22675;-62
2023/10/17 22:51:13;;;;;;;;;;;16.60;54.00;;;;;;218067;1295;22544;-60
2023/10/17 22:56:16;;;;;;;;;;;16.60;54.00;;;;;;218318;1292;22516;-61
2023/10/17 23:01:18;;;;;;;;;;;16.60;54.00;;;;;;218050;1295;22601;-61
2023/10/17 23:06:21;;;;;;;;;;;16.60;54.10;;;;;;218097;1295;23425;-62
2023/10/17 23:11:24;;;;;;;;;;;16.60;54.00;;;;;;218591;1295;22601;-62
2023/10/17 23:16:27;;;;;;;;;;;16.60;54.10;;;;;;217723;1289;23930;-60
2023/10/17 23:21:29;;;;;;;;;;;16.60;54.00;;;;;;218123;1295;22776;-61
2023/10/17 23:26:35;;;;;;;;;;;16.60;54.00;;;;;;218348;1295;22543;-62
2023/10/17 23:31:37;;;;;;;;;;;16.60;54.30;;;;;;217999;1283;23903;-62
2023/10/17 23:36:42;;;;;;;;;;;16.50;53.90;;;;;;218090;1295;25408;-62
2023/10/17 23:41:45;;;;;;;;;;;16.50;53.90;;;;;;218303;1295;22492;-62
2023/10/17 23:46:47;;;;;;;;;;;16.50;54.30;;;;;;218195;1292;22545;-63
2023/10/17 23:51:50;;;;;;;;;;;16.50;54.40;;;;;;217838;1286;25323;-63
2023/10/17 23:56:52;;;;;;;;;;;16.40;54.00;;;;;;217987;1295;22550;-63
